Time;durP1;ratioP1;P1;durP2;ratioP2;P2;SDS_P1;SDS_P2;PMS_P1;PMS_P2;Temp;Humidity;BMP_temperature;BMP_pressure;BME280_temperature;BME280_humidity;BME280_pressure;Samples;Min_cycle;Max_cycle;Signal;HPM_P1;HPM_P2
2024/01/01 00:02:13;;;;;;;1.38;0.60;;;5.70;99.90;;;;;;5047265;28;20038;-93
2024/01/01 00:04:39;;;;;;;2.47;0.50;;;5.70;99.90;;;;;;5041725;28;20036;-94
2024/01/01 00:07:05;;;;;;;1.27;0.50;;;5.70;99.90;;;;;;5038939;28;20052;-94
2024/01/01 00:09:34;;;;;;;1.17;0.60;;;5.70;99.90;;;;;;5049434;28;20037;-93
2024/01/01 00:12:09;;;;;;;2.72;1.70;;;5.70;99.90;;;;;;5052179;28;20042;-93
2024/01/01 00:14:38;;;;;;;0.50;0.40;;;5.60;99.90;;;;;;5041729;28;20303;-94
2024/01/01 00:17:04;;;;;;;2.28;0.50;;;5.70;99.90;;;;;;5042518;28;20081;-93
2024/01/01 00:19:29;;;;;;;1.98;0.52;;;5.70;99.90;;;;;;5039643;28;20048;-93
2024/01/01 00:21:55;;;;;;;0.43;0.22;;;5.60;99.90;;;;;;5026746;28;20034;-94
2024/01/01 00:24:22;;;;;;;2.97;0.63;;;5.70;99.90;;;;;;5041969;28;20085;-94
2024/01/01 00:26:58;;;;;;;1.98;0.60;;;5.60;99.90;;;;;;5041008;28;20037;-91
2024/01/01 00:29:27;;;;;;;1.05;0.50;;;5.70;99.90;;;;;;5036636;28;20021;-93
2024/01/01 00:31:52;;;;;;;1.55;0.30;;;5.70;99.90;;;;;;5037055;28;20033;-92
2024/01/01 00:34:39;;;;;;;1.02;0.22;;;5.70;99.90;;;;;;5039902;28;20045;-92
2024/01/01 00:37:14;;;;;;;1.83;0.60;;;5.70;99.90;;;;;;5027453;28;20527;-93
2024/01/01 00:39:40;;;;;;;1.65;0.52;;;5.70;99.90;;;;;;5042065;28;20080;-93
2024/01/01 00:42:26;;;;;;;1.10;0.68;;;5.60;99.90;;;;;;5056897;28;20025;-93
2024/01/01 00:44:54;;;;;;;1.75;0.65;;;5.60;99.90;;;;;;5043830;28;20073;-95
2024/01/01 00:47:19;;;;;;;3.05;1.00;;;5.60;99.90;;;;;;5034320;28;20088;-93
2024/01/01 00:49:45;;;;;;;2.92;1.13;;;5.50;99.90;;;;;;5036550;28;20033;-93
2024/01/01 00:52:11;;;;;;;2.75;1.23;;;5.50;99.90;;;;;;5038543;28;20077;-93
2024/01/01 00:54:37;;;;;;;4.25;1.50;;;5.50;99.90;;;;;;5033113;28;20057;-93
2024/01/01 00:57:05;;;;;;;6.50;1.75;;;5.50;99.90;;;;;;5037375;28;20041;-95
2024/01/01 00:59:31;;;;;;;8.98;2.30;;;5.50;99.90;;;;;;5039149;28;20060;-95
2024/01/01 01:01:57;;;;;;;14.20;2.75;;;5.60;99.90;;;;;;5042592;28;20021;-95
2024/01/01 01:04:22;;;;;;;8.77;2.30;;;5.60;99.90;;;;;;5042983;28;20025;-94
2024/01/01 01:06:48;;;;;;;12.80;2.63;;;5.70;99.90;;;;;;5035047;28;20041;-91
2024/01/01 01:09:14;;;;;;;8.68;1.83;;;5.70;99.90;;;;;;5033623;28;20029;-93
2024/01/01 01:11:40;;;;;;;6.95;1.90;;;5.70;99.90;;;;;;5034498;28;20042;-92
2024/01/01 01:14:06;;;;;;;11.52;2.47;;;5.80;99.90;;;;;;5033893;28;20121;-90
2024/01/01 01:16:32;;;;;;;19.73;3.08;;;5.80;99.90;;;;;;5034867;28;20619;-92
2024/01/01 01:18:59;;;;;;;14.38;2.30;;;5.90;99.90;;;;;;5033120;28;20052;-93
2024/01/01 01:21:25;;;;;;;10.43;2.28;;;5.90;99.90;;;;;;5035300;28;20481;-90
2024/01/01 01:23:51;;;;;;;14.88;2.08;;;6.00;99.90;;;;;;5034259;28;20033;-93
2024/01/01 01:26:17;;;;;;;15.98;2.42;;;6.00;99.90;;;;;;5033582;28;20024;-91
2024/01/01 01:28:42;;;;;;;11.55;2.42;;;6.00;99.90;;;;;;5033301;28;20025;-92
2024/01/01 01:31:08;;;;;;;6.60;1.42;;;6.00;99.90;;;;;;5033400;28;20165;-93
2024/01/01 01:33:34;;;;;;;11.27;1.95;;;6.00;99.90;;;;;;5032394;28;20073;-92
2024/01/01 01:36:00;;;;;;;5.57;1.85;;;6.10;99.90;;;;;;5033217;28;20095;-92
2024/01/01 01:38:26;;;;;;;9.13;2.55;;;6.10;99.90;;;;;;5032657;28;20032;-91
2024/01/01 01:40:54;;;;;;;7.38;1.58;;;6.10;99.90;;;;;;5033345;28;20025;-91
2024/01/01 01:43:23;;;;;;;11.70;2.70;;;6.20;99.90;;;;;;5033227;28;20087;-91
2024/01/01 01:45:50;;;;;;;14.95;2.45;;;6.10;99.90;;;;;;5038764;28;20020;-91
2024/01/01 01:48:17;;;;;;;14.88;3.15;;;6.20;99.90;;;;;;5052251;28;20111;-92
2024/01/01 01:50:46;;;;;;;12.82;2.13;;;6.20;99.90;;;;;;5053444;28;20108;-91
2024/01/01 01:53:13;;;;;;;12.85;2.22;;;6.20;99.90;;;;;;5054751;28;20020;-93
2024/01/01 01:55:44;;;;;;;10.75;2.28;;;6.20;99.90;;;;;;5053616;28;20059;-91
2024/01/01 01:58:11;;;;;;;8.38;1.60;;;6.20;99.90;;;;;;5053592;28;20025;-92
2024/01/01 02:00:40;;;;;;;14.80;2.78;;;6.20;99.90;;;;;;5053486;28;20496;-93
2024/01/01 02:03:07;;;;;;;7.63;2.35;;;6.30;99.90;;;;;;5054642;28;20069;-93
2024/01/01 02:05:32;;;;;;;7.05;1.75;;;6.20;99.90;;;;;;5057688;28;20049;-93
2024/01/01 02:07:59;;;;;;;9.50;2.13;;;6.20;99.90;;;;;;5054066;28;20078;-91
2024/01/01 02:10:26;;;;;;;10.27;1.77;;;6.20;99.90;;;;;;5055539;28;20071;-93
2024/01/01 02:12:51;;;;;;;9.80;2.13;;;6.20;99.90;;;;;;5055202;28;20033;-93
2024/01/01 02:15:17;;;;;;;9.77;1.48;;;6.20;99.90;;;;;;5056417;28;20047;-92
2024/01/01 02:17:43;;;;;;;11.27;2.35;;;6.30;99.90;;;;;;5055006;28;20052;-93
2024/01/01 02:20:09;;;;;;;7.13;1.77;;;6.30;99.90;;;;;;5055348;28;20032;-91
2024/01/01 02:22:39;;;;;;;7.38;1.45;;;6.30;99.90;;;;;;5055069;28;20349;-92
2024/01/01 02:25:06;;;;;;;13.55;2.15;;;6.30;99.90;;;;;;5054244;28;20028;-93
2024/01/01 02:27:33;;;;;;;11.73;2.25;;;6.30;99.90;;;;;;5053990;28;20033;-92
2024/01/01 02:29:59;;;;;;;12.45;1.95;;;6.30;99.90;;;;;;5055538;28;20033;-92
2024/01/01 02:32:24;;;;;;;11.50;1.60;;;6.30;99.90;;;;;;5066926;28;20051;-92
2024/01/01 02:34:50;;;;;;;14.63;2.20;;;6.30;99.90;;;;;;5071624;28;20037;-92
2024/01/01 02:37:17;;;;;;;4.03;0.88;;;6.30;99.90;;;;;;5070939;28;20052;-94
2024/01/01 02:39:45;;;;;;;7.90;1.20;;;6.30;99.90;;;;;;5067507;28;20021;-95
2024/01/01 02:42:10;;;;;;;9.05;1.05;;;6.30;99.90;;;;;;5062234;28;20047;-93
2024/01/01 02:44:36;;;;;;;10.45;1.45;;;6.20;99.90;;;;;;5066454;28;20028;-93
2024/01/01 02:47:02;;;;;;;5.88;1.17;;;6.20;99.90;;;;;;5071329;28;20035;-92
2024/01/01 02:49:28;;;;;;;7.15;1.05;;;6.20;99.90;;;;;;5071077;28;20623;-92
2024/01/01 02:51:53;;;;;;;9.50;2.00;;;6.10;99.90;;;;;;5059245;28;20040;-93
2024/01/01 02:54:19;;;;;;;6.97;1.40;;;6.10;99.90;;;;;;5071699;28;20061;-90
2024/01/01 02:56:45;;;;;;;8.95;1.55;;;6.10;99.90;;;;;;5068343;28;20021;-91
2024/01/01 02:59:11;;;;;;;8.13;1.00;;;6.10;99.90;;;;;;5071977;28;20029;-90
2024/01/01 03:01:36;;;;;;;4.80;1.25;;;6.10;99.90;;;;;;5071029;28;20116;-92
2024/01/01 03:04:02;;;;;;;9.73;1.48;;;6.10;99.90;;;;;;5069724;28;20516;-90
2024/01/01 03:06:28;;;;;;;7.15;1.27;;;6.10;99.90;;;;;;5062071;28;20036;-92
2024/01/01 03:08:54;;;;;;;10.23;0.93;;;6.10;99.90;;;;;;5061332;28;20032;-93
2024/01/01 03:11:19;;;;;;;4.82;0.95;;;6.00;99.90;;;;;;5064993;28;20091;-92
2024/01/01 03:13:45;;;;;;;1.48;0.40;;;6.00;99.90;;;;;;5061539;28;20029;-92
2024/01/01 03:16:11;;;;;;;3.67;0.85;;;6.00;99.90;;;;;;5064388;28;20098;-91
2024/01/01 03:18:36;;;;;;;6.47;0.95;;;5.90;99.90;;;;;;5062078;28;20056;-91
2024/01/01 03:21:03;;;;;;;10.43;0.90;;;5.90;99.90;;;;;;5060504;28;20025;-91
2024/01/01 03:23:29;;;;;;;10.23;1.40;;;5.90;99.90;;;;;;5060890;28;20186;-93
2024/01/01 03:25:54;;;;;;;9.88;2.10;;;5.90;99.90;;;;;;5060227;28;20067;-91
2024/01/01 03:28:20;;;;;;;10.65;1.27;;;5.90;99.90;;;;;;5057795;28;20469;-92
2024/01/01 03:30:46;;;;;;;4.35;0.93;;;5.90;99.90;;;;;;5057185;28;20539;-92
2024/01/01 03:33:12;;;;;;;3.72;1.00;;;5.90;99.90;;;;;;5055538;28;20057;-91
2024/01/01 03:35:37;;;;;;;13.98;1.30;;;5.90;99.90;;;;;;5055161;28;20029;-92
2024/01/01 03:38:03;;;;;;;10.13;1.58;;;5.90;99.90;;;;;;5054570;28;20096;-91
2024/01/01 03:40:30;;;;;;;8.40;1.13;;;5.90;99.90;;;;;;5043347;28;20071;-92
2024/01/01 03:42:56;;;;;;;8.07;1.33;;;6.00;99.90;;;;;;5034440;28;20081;-92
2024/01/01 03:45:22;;;;;;;10.77;1.40;;;6.00;99.90;;;;;;5035072;28;20022;-93
2024/01/01 03:47:48;;;;;;;9.48;1.83;;;6.00;99.90;;;;;;5034141;28;20503;-93
2024/01/01 03:50:16;;;;;;;10.68;1.60;;;6.00;99.90;;;;;;5034509;28;20032;-92
2024/01/01 03:52:43;;;;;;;6.80;1.50;;;6.00;99.90;;;;;;5034568;28;20099;-92
2024/01/01 03:55:09;;;;;;;16.40;1.73;;;6.00;99.90;;;;;;5018963;28;20025;-92
2024/01/01 03:57:35;;;;;;;14.98;1.55;;;6.10;99.90;;;;;;5018108;28;20044;-92
2024/01/01 04:00:02;;;;;;;13.30;1.65;;;6.10;99.90;;;;;;5034421;28;20026;-93
2024/01/01 04:02:30;;;;;;;13.13;1.77;;;6.10;99.90;;;;;;5034572;28;20120;-94
2024/01/01 04:04:58;;;;;;;19.25;1.85;;;6.10;99.90;;;;;;5035840;28;20049;-92
2024/01/01 04:07:25;;;;;;;18.63;1.77;;;6.20;99.90;;;;;;5035528;28;20033;-93
2024/01/01 04:09:53;;;;;;;11.35;1.52;;;6.20;99.90;;;;;;5033439;28;20080;-92
2024/01/01 04:12:19;;;;;;;15.20;2.53;;;6.20;99.90;;;;;;5017786;28;20038;-92
2024/01/01 04:14:45;;;;;;;13.75;1.95;;;6.10;99.90;;;;;;5034261;28;20075;-92
2024/01/01 04:17:11;;;;;;;16.17;1.60;;;6.20;99.90;;;;;;5034350;28;20025;-91
2024/01/01 04:19:38;;;;;;;16.05;2.13;;;6.20;99.90;;;;;;5033795;28;20036;-92
2024/01/01 04:22:04;;;;;;;16.38;1.83;;;6.20;99.90;;;;;;5033740;28;20057;-92
2024/01/01 04:24:30;;;;;;;19.98;1.73;;;6.20;99.90;;;;;;5034362;28;20034;-90
2024/01/01 04:26:58;;;;;;;16.33;1.73;;;6.10;99.90;;;;;;5035427;28;20522;-92
2024/01/01 04:29:23;;;;;;;10.18;1.90;;;6.20;99.90;;;;;;5033992;28;20579;-92
2024/01/01 04:31:49;;;;;;;15.13;1.75;;;6.20;99.90;;;;;;5034275;28;20046;-92
2024/01/01 04:34:15;;;;;;;10.13;2.25;;;6.20;99.90;;;;;;4987241;28;1389473;-93
2024/01/01 04:36:43;;;;;;;12.45;1.30;;;6.20;99.90;;;;;;5035385;28;20094;-92
2024/01/01 04:39:09;;;;;;;14.45;1.80;;;6.20;99.90;;;;;;5035254;28;20033;-91
2024/01/01 04:41:36;;;;;;;13.85;2.20;;;6.20;99.90;;;;;;5034939;28;20034;-93
2024/01/01 04:44:02;;;;;;;14.23;1.80;;;6.20;99.90;;;;;;5035511;28;20021;-94
2024/01/01 04:46:28;;;;;;;7.43;1.73;;;6.10;99.90;;;;;;5037024;28;20545;-93
2024/01/01 04:48:53;;;;;;;13.10;1.60;;;6.10;99.90;;;;;;5046408;28;20112;-94
2024/01/01 04:51:21;;;;;;;14.85;1.65;;;6.10;99.90;;;;;;5046376;28;20025;-92
2024/01/01 04:53:46;;;;;;;11.77;1.80;;;6.10;99.90;;;;;;5035546;28;20041;-93
2024/01/01 04:56:12;;;;;;;15.93;1.83;;;6.10;99.90;;;;;;5041027;28;20048;-91
2024/01/01 04:58:38;;;;;;;7.82;1.02;;;6.10;99.90;;;;;;5039878;28;20285;-92
2024/01/01 05:01:05;;;;;;;9.35;1.48;;;6.10;99.90;;;;;;5052335;28;20044;-93
2024/01/01 05:03:32;;;;;;;7.18;2.78;;;6.00;99.90;;;;;;5054275;28;20048;-89
2024/01/01 05:05:58;;;;;;;5.88;1.00;;;6.00;99.90;;;;;;5055745;28;20152;-93
2024/01/01 05:08:25;;;;;;;9.60;1.70;;;6.00;99.90;;;;;;5055009;28;20043;-92
2024/01/01 05:10:50;;;;;;;9.15;1.27;;;6.00;99.90;;;;;;5055691;28;20032;-91
2024/01/01 05:13:16;;;;;;;13.23;3.58;;;6.00;99.90;;;;;;5057904;28;20041;-92
2024/01/01 05:15:43;;;;;;;14.88;1.73;;;6.00;99.90;;;;;;5039558;28;20029;-91
2024/01/01 05:18:10;;;;;;;14.80;2.30;;;6.00;99.90;;;;;;5056534;28;20045;-92
2024/01/01 05:20:35;;;;;;;17.05;1.98;;;6.00;99.90;;;;;;5056873;28;20038;-92
2024/01/01 05:23:01;;;;;;;8.27;1.27;;;6.00;99.90;;;;;;5056857;28;20029;-94
2024/01/01 05:25:27;;;;;;;8.43;1.45;;;6.00;99.90;;;;;;5044326;28;20053;-93
2024/01/01 05:27:53;;;;;;;13.45;1.48;;;6.00;99.90;;;;;;5044555;28;20029;-93
2024/01/01 05:30:19;;;;;;;11.95;1.15;;;6.00;99.90;;;;;;5040541;28;20060;-91
2024/01/01 05:32:45;;;;;;;7.00;1.15;;;6.00;99.90;;;;;;5043103;28;20045;-93
2024/01/01 05:35:12;;;;;;;4.85;1.50;;;6.00;99.90;;;;;;5045571;28;20037;-93
2024/01/01 05:37:37;;;;;;;10.93;1.38;;;6.00;99.90;;;;;;5038412;28;20499;-91
2024/01/01 05:40:03;;;;;;;6.10;1.25;;;6.00;99.90;;;;;;5037142;28;20025;-92
2024/01/01 05:42:31;;;;;;;5.07;1.30;;;6.00;99.90;;;;;;5036469;28;20021;-92
2024/01/01 05:44:57;;;;;;;8.00;1.33;;;5.90;99.90;;;;;;5036446;28;20064;-93
2024/01/01 05:47:23;;;;;;;14.18;1.63;;;5.90;99.90;;;;;;5036027;28;20432;-93
2024/01/01 05:49:49;;;;;;;11.63;1.50;;;5.90;99.90;;;;;;5037088;28;20087;-92
2024/01/01 05:52:17;;;;;;;5.68;1.45;;;5.90;99.90;;;;;;5036714;28;20041;-93
2024/01/01 05:54:43;;;;;;;15.10;1.83;;;5.90;99.90;;;;;;5037021;28;20018;-92
2024/01/01 05:57:09;;;;;;;12.88;1.40;;;5.90;99.90;;;;;;5037160;28;20052;-92
2024/01/01 05:59:35;;;;;;;12.38;1.55;;;5.90;99.90;;;;;;5050437;28;20048;-92
2024/01/01 06:02:00;;;;;;;3.00;1.10;;;5.80;99.90;;;;;;5047324;28;20513;-93
2024/01/01 06:04:26;;;;;;;8.07;1.30;;;5.90;99.90;;;;;;5048968;28;20025;-92
2024/01/01 06:06:52;;;;;;;4.80;0.85;;;5.80;99.90;;;;;;5045082;28;20041;-91
2024/01/01 06:09:18;;;;;;;5.05;1.42;;;5.80;99.90;;;;;;5042151;28;20028;-92
2024/01/01 06:11:44;;;;;;;6.85;1.27;;;5.80;99.90;;;;;;5038690;28;20061;-92
2024/01/01 06:14:14;;;;;;;6.15;1.35;;;5.70;99.90;;;;;;5019187;28;20068;-93
2024/01/01 06:16:42;;;;;;;9.73;1.17;;;5.70;99.90;;;;;;5037239;28;20025;-92
2024/01/01 06:19:09;;;;;;;3.15;0.85;;;5.70;99.90;;;;;;5036395;28;20304;-92
2024/01/01 06:21:34;;;;;;;3.55;1.00;;;5.70;99.90;;;;;;5042144;28;20021;-93
2024/01/01 06:24:00;;;;;;;3.47;0.93;;;5.60;99.90;;;;;;5041802;28;20477;-93
2024/01/01 06:26:26;;;;;;;5.32;1.00;;;5.60;99.90;;;;;;5041551;28;20033;-92
2024/01/01 06:28:52;;;;;;;4.78;1.10;;;5.60;99.90;;;;;;5049684;28;20022;-93
2024/01/01 06:31:17;;;;;;;9.57;1.55;;;5.50;99.90;;;;;;5043930;28;20124;-92
2024/01/01 06:33:43;;;;;;;4.57;1.20;;;5.50;99.90;;;;;;5036725;28;20060;-92
2024/01/01 06:36:10;;;;;;;5.90;1.30;;;5.50;99.90;;;;;;5033433;28;20029;-92
2024/01/01 06:38:37;;;;;;;6.75;1.50;;;5.50;99.90;;;;;;5034684;28;20029;-93
2024/01/01 06:41:03;;;;;;;4.57;1.10;;;5.50;99.90;;;;;;5018478;28;20467;-92
2024/01/01 06:43:30;;;;;;;6.25;1.05;;;5.50;99.90;;;;;;5035270;28;20089;-92
2024/01/01 06:45:56;;;;;;;12.05;2.20;;;5.50;99.90;;;;;;5035291;28;20033;-91
2024/01/01 06:48:22;;;;;;;12.02;1.65;;;5.50;99.90;;;;;;5035426;28;20028;-92
2024/01/01 06:50:48;;;;;;;5.53;1.40;;;5.50;99.90;;;;;;5035751;28;20053;-92
2024/01/01 06:53:13;;;;;;;8.98;1.60;;;5.50;99.90;;;;;;5035082;28;20029;-93
2024/01/01 06:55:39;;;;;;;4.57;1.10;;;5.50;99.90;;;;;;5035092;28;20085;-91
2024/01/01 06:58:05;;;;;;;10.55;1.40;;;5.50;99.90;;;;;;5034872;28;20029;-92
2024/01/01 07:00:30;;;;;;;8.90;2.10;;;5.50;99.90;;;;;;5035673;28;20277;-92
2024/01/01 07:02:56;;;;;;;5.93;1.13;;;5.50;99.90;;;;;;5034727;28;20148;-92
2024/01/01 07:05:24;;;;;;;8.05;1.73;;;5.50;99.90;;;;;;5035898;28;20033;-93
2024/01/01 07:07:50;;;;;;;7.97;1.00;;;5.50;99.90;;;;;;5037541;28;20029;-93
2024/01/01 07:10:17;;;;;;;2.20;1.17;;;5.50;99.90;;;;;;5048435;28;20026;-92
2024/01/01 07:12:43;;;;;;;7.53;1.20;;;5.50;99.90;;;;;;5035855;28;20120;-92
2024/01/01 07:15:09;;;;;;;10.23;1.58;;;5.50;99.90;;;;;;5034163;28;20498;-92
2024/01/01 07:17:34;;;;;;;8.32;1.23;;;5.50;99.90;;;;;;5034135;28;20127;-94
2024/01/01 07:20:04;;;;;;;6.10;1.15;;;5.50;99.90;;;;;;5035849;28;20496;-93
2024/01/01 07:22:29;;;;;;;6.32;1.73;;;5.50;99.90;;;;;;5033396;28;20117;-92
2024/01/01 07:24:57;;;;;;;7.90;1.33;;;5.50;99.90;;;;;;5033566;28;20076;-93
2024/01/01 07:27:23;;;;;;;6.70;1.20;;;5.50;99.90;;;;;;5038532;28;20026;-95
2024/01/01 07:29:49;;;;;;;6.70;1.20;;;5.50;99.90;;;;;;5020980;28;20080;-93
2024/01/01 07:32:14;;;;;;;11.25;1.60;;;5.50;99.90;;;;;;5037201;28;20492;-94
2024/01/01 07:34:40;;;;;;;6.80;1.40;;;5.50;99.90;;;;;;5037093;28;20692;-93
2024/01/01 07:37:07;;;;;;;8.93;1.40;;;5.50;99.90;;;;;;5037177;28;20033;-93
2024/01/01 07:39:32;;;;;;;12.98;1.90;;;5.50;99.90;;;;;;5037338;28;20021;-94
2024/01/01 07:41:59;;;;;;;12.18;1.48;;;5.50;99.90;;;;;;5036919;28;20032;-92
2024/01/01 07:44:25;;;;;;;13.05;1.58;;;5.50;99.90;;;;;;5037525;28;20033;-93
2024/01/01 07:46:51;;;;;;;3.97;0.77;;;5.50;99.90;;;;;;5036794;28;20032;-93
2024/01/01 07:49:17;;;;;;;8.35;1.05;;;5.50;99.90;;;;;;5037055;28;20032;-92
2024/01/01 07:51:43;;;;;;;7.20;1.05;;;5.50;99.90;;;;;;5051342;28;20093;-92
2024/01/01 07:54:09;;;;;;;3.33;1.00;;;5.50;99.90;;;;;;5052716;28;20025;-93
2024/01/01 07:56:37;;;;;;;9.98;1.58;;;5.50;99.90;;;;;;5052738;28;20036;-92
2024/01/01 07:59:03;;;;;;;7.57;1.13;;;5.40;99.90;;;;;;5044267;28;20122;-93
2024/01/01 08:01:29;;;;;;;11.80;1.30;;;5.40;99.90;;;;;;5036470;28;20441;-92
2024/01/01 08:03:54;;;;;;;7.25;1.38;;;5.40;99.90;;;;;;5035785;28;20025;-91
2024/01/01 08:06:21;;;;;;;8.40;1.30;;;5.40;99.90;;;;;;5036962;28;20073;-92
2024/01/01 08:08:47;;;;;;;14.63;1.42;;;5.40;99.90;;;;;;5037129;28;20119;-94
2024/01/01 08:11:13;;;;;;;10.63;2.42;;;5.40;99.90;;;;;;5037443;28;20040;-93
2024/01/01 08:13:39;;;;;;;12.00;1.92;;;5.40;99.90;;;;;;5036345;28;20118;-94
2024/01/01 08:16:04;;;;;;;4.20;0.95;;;5.40;99.90;;;;;;5036002;28;20454;-92
2024/01/01 08:18:30;;;;;;;10.27;1.75;;;5.40;99.90;;;;;;5036576;28;20033;-94
2024/01/01 08:20:56;;;;;;;16.58;2.60;;;5.40;99.90;;;;;;5041376;28;20520;-94
2024/01/01 08:23:22;;;;;;;13.80;1.35;;;5.40;99.90;;;;;;5042256;28;20037;-93
2024/01/01 08:25:47;;;;;;;11.05;1.60;;;5.40;99.90;;;;;;5007466;28;20041;-93
2024/01/01 08:28:13;;;;;;;8.75;1.55;;;5.40;99.90;;;;;;5036109;28;20018;-93
2024/01/01 08:30:39;;;;;;;5.82;0.95;;;5.40;99.90;;;;;;5032727;28;20372;-92
2024/01/01 08:33:05;;;;;;;12.85;2.10;;;5.40;99.90;;;;;;5026816;28;20045;-92
2024/01/01 08:35:31;;;;;;;12.73;1.90;;;5.40;99.90;;;;;;5033070;28;20045;-92
2024/01/01 08:37:57;;;;;;;12.77;1.00;;;5.40;99.90;;;;;;5033736;28;20018;-93
2024/01/01 08:40:23;;;;;;;9.13;1.23;;;5.40;99.90;;;;;;5034457;28;20076;-93
2024/01/01 08:42:50;;;;;;;13.27;1.70;;;5.40;99.90;;;;;;5036279;28;20096;-91
2024/01/01 08:45:20;;;;;;;12.52;1.23;;;5.40;99.90;;;;;;5034521;28;20029;-92
2024/01/01 08:47:46;;;;;;;5.47;1.05;;;5.40;99.90;;;;;;5034602;28;20100;-93
2024/01/01 08:50:13;;;;;;;9.02;1.52;;;5.40;99.90;;;;;;5034642;28;20036;-92
2024/01/01 08:52:39;;;;;;;6.03;1.50;;;5.40;99.90;;;;;;5036214;28;20029;-91
2024/01/01 08:55:05;;;;;;;10.52;1.73;;;5.40;99.90;;;;;;5035118;28;20021;-92
2024/01/01 08:57:31;;;;;;;12.45;2.30;;;5.40;99.90;;;;;;5029649;28;20049;-92
2024/01/01 08:59:56;;;;;;;12.02;3.63;;;5.40;99.90;;;;;;5035567;28;20072;-91
2024/01/01 09:02:22;;;;;;;14.07;3.70;;;5.40;99.90;;;;;;5041497;28;20032;-91
2024/01/01 09:04:48;;;;;;;11.15;1.95;;;5.40;99.90;;;;;;5049406;28;20080;-90
2024/01/01 09:07:13;;;;;;;8.82;2.10;;;5.40;99.90;;;;;;5043216;28;20056;-91
2024/01/01 09:09:39;;;;;;;10.75;1.98;;;5.40;99.90;;;;;;5042675;28;20503;-92
2024/01/01 09:12:05;;;;;;;11.48;2.55;;;5.40;99.90;;;;;;5039673;28;20489;-93
2024/01/01 09:14:31;;;;;;;14.07;2.05;;;5.40;99.90;;;;;;5043243;28;20030;-92
2024/01/01 09:16:56;;;;;;;10.60;2.10;;;5.50;99.90;;;;;;5035799;28;20029;-92
2024/01/01 09:19:22;;;;;;;7.18;1.83;;;5.50;99.90;;;;;;5034877;28;20219;-92
2024/01/01 09:21:49;;;;;;;9.50;1.65;;;5.40;99.90;;;;;;5025964;28;20477;-93
2024/01/01 09:24:15;;;;;;;6.35;1.70;;;5.40;99.90;;;;;;5032576;28;20018;-93
2024/01/01 09:26:40;;;;;;;10.32;1.38;;;5.40;99.90;;;;;;5034950;28;20052;-92
2024/01/01 09:29:06;;;;;;;8.48;1.40;;;5.50;99.90;;;;;;5031338;28;20083;-94
2024/01/01 09:31:32;;;;;;;8.57;2.00;;;5.50;99.90;;;;;;5034985;28;20041;-91
2024/01/01 09:34:03;;;;;;;6.25;1.23;;;5.50;99.90;;;;;;5032004;28;20037;-91
2024/01/01 09:36:29;;;;;;;11.75;1.42;;;5.50;99.90;;;;;;5032050;28;20068;-90
2024/01/01 09:38:55;;;;;;;9.82;1.80;;;5.50;99.90;;;;;;5032174;28;20124;-90
2024/01/01 09:41:25;;;;;;;7.10;2.60;;;5.40;99.90;;;;;;5030581;28;20021;-90
2024/01/01 09:43:51;;;;;;;14.10;2.03;;;5.50;99.90;;;;;;5030939;28;20041;-91
2024/01/01 09:46:17;;;;;;;7.00;1.88;;;5.50;99.90;;;;;;5014258;28;20022;-92
2024/01/01 09:48:45;;;;;;;8.52;1.77;;;5.60;99.90;;;;;;5017733;28;20033;-91
2024/01/01 09:51:11;;;;;;;8.63;2.10;;;5.70;99.90;;;;;;5034421;28;20029;-92
2024/01/01 09:53:39;;;;;;;9.13;1.70;;;5.70;99.90;;;;;;5034154;28;20034;-91
2024/01/01 09:56:04;;;;;;;10.45;1.30;;;5.80;99.90;;;;;;5033857;28;20024;-92
2024/01/01 09:58:44;;;;;;;12.98;1.80;;;6.00;99.90;;;;;;5040539;28;20207;-93
2024/01/01 10:01:11;;;;;;;13.15;1.70;;;6.30;99.90;;;;;;5043599;28;20053;-91
2024/01/01 10:03:38;;;;;;;6.85;1.30;;;6.50;99.90;;;;;;5042511;28;20025;-92
2024/01/01 10:06:11;;;;;;;7.40;1.08;;;6.70;99.90;;;;;;5046295;28;20036;-90
2024/01/01 10:08:38;;;;;;;10.35;1.55;;;6.80;99.90;;;;;;5040441;28;20022;-92
2024/01/01 10:11:20;;;;;;;12.45;1.65;;;6.90;99.90;;;;;;5046243;28;20146;-91
2024/01/01 10:13:47;;;;;;;7.55;1.52;;;7.10;99.90;;;;;;5045828;28;20029;-91
2024/01/01 10:16:26;;;;;;;9.85;1.20;;;7.40;99.90;;;;;;5035083;28;20045;-90
2024/01/01 10:18:57;;;;;;;10.98;1.20;;;7.70;99.90;;;;;;5031467;28;20162;-90
2024/01/01 10:21:30;;;;;;;;;;;7.90;99.90;;;;;;5048529;28;20104;-91
2024/01/01 10:23:57;;;;;;;5.93;1.17;;;8.20;99.90;;;;;;5031811;28;20016;-90
2024/01/01 10:26:23;;;;;;;10.30;1.80;;;8.40;99.90;;;;;;5031970;28;20025;-92
2024/01/01 10:28:49;;;;;;;7.55;1.30;;;8.60;99.90;;;;;;5030657;28;20025;-90
2024/01/01 10:31:15;;;;;;;13.70;2.72;;;8.80;99.90;;;;;;5025153;28;20029;-91
2024/01/01 10:33:42;;;;;;;15.93;1.40;;;9.00;99.90;;;;;;5027689;28;20505;-91
2024/01/01 10:36:08;;;;;;;10.05;1.67;;;9.00;99.90;;;;;;5027974;28;20037;-90
2024/01/01 10:38:38;;;;;;;9.18;1.40;;;8.90;99.90;;;;;;5028532;28;20025;-90
2024/01/01 10:41:07;;;;;;;9.40;1.42;;;8.80;99.90;;;;;;5032430;28;20025;-91
2024/01/01 10:43:35;;;;;;;8.50;1.50;;;8.60;99.90;;;;;;5029780;28;20053;-92
2024/01/01 10:46:05;;;;;;;13.98;1.77;;;8.40;99.90;;;;;;5030075;28;20124;-92
2024/01/01 10:48:41;;;;;;;11.65;1.55;;;8.40;99.90;;;;;;5032630;28;20030;-89
2024/01/01 10:52:04;;;;;;;6.05;1.30;;;8.20;99.90;;;;;;5031206;28;20508;-92
2024/01/01 10:54:44;;;;;;;11.32;1.50;;;8.10;99.90;;;;;;4937243;29;20067;-92
2024/01/01 10:57:17;;;;;;;14.15;3.15;;;8.10;99.90;;;;;;4945531;29;20027;-92
2024/01/01 11:00:04;;;;;;;10.05;1.45;;;8.10;99.90;;;;;;4954769;28;20098;-91
2024/01/01 11:02:31;;;;;;;10.35;1.50;;;8.20;99.90;;;;;;4948718;28;20032;-91
2024/01/01 11:05:11;;;;;;;9.60;1.17;;;8.50;99.90;;;;;;4967806;28;20047;-92
2024/01/01 11:07:52;;;;;;;6.90;1.25;;;8.90;99.90;;;;;;4940406;29;20031;-94
2024/01/01 11:10:35;;;;;;;9.93;1.40;;;9.30;99.90;;;;;;4964445;28;20039;-90
2024/01/01 11:13:03;;;;;;;8.45;1.50;;;9.90;99.90;;;;;;4940842;29;20101;-93
2024/01/01 11:15:49;;;;;;;9.55;2.00;;;10.30;99.90;;;;;;4933378;28;20057;-92
2024/01/01 11:18:18;;;;;;;15.00;1.20;;;10.60;99.90;;;;;;4951704;28;20094;-92
2024/01/01 11:20:54;;;;;;;10.65;1.23;;;10.90;99.90;;;;;;4952696;28;20039;-91
2024/01/01 11:23:41;;;;;;;6.78;1.38;;;11.10;99.90;;;;;;4956275;28;20070;-92
2024/01/01 11:26:22;;;;;;;8.65;1.33;;;11.30;99.90;;;;;;5034579;28;20063;-92
2024/01/01 11:28:49;;;;;;;8.32;1.48;;;11.70;99.90;;;;;;5037506;28;20032;-93
2024/01/01 11:31:15;;;;;;;11.82;1.48;;;12.00;99.90;;;;;;5027738;28;20032;-92
2024/01/01 11:33:40;;;;;;;9.52;1.70;;;12.40;99.90;;;;;;5037367;28;20041;-93
2024/01/01 11:36:10;;;;;;;8.50;1.60;;;12.70;99.90;;;;;;5041710;28;20032;-93
2024/01/01 11:38:36;;;;;;;7.75;2.08;;;12.80;99.90;;;;;;5044053;28;20026;-93
2024/01/01 11:41:02;;;;;;;9.05;2.15;;;12.90;99.90;;;;;;5056544;28;20051;-93
2024/01/01 11:43:28;;;;;;;8.25;1.50;;;13.10;99.90;;;;;;5034496;28;20017;-93
2024/01/01 11:45:57;;;;;;;10.85;1.35;;;13.20;99.60;;;;;;5044975;28;20528;-94
2024/01/01 11:48:24;;;;;;;9.00;1.50;;;13.30;97.90;;;;;;5047893;28;20048;-93
2024/01/01 11:50:50;;;;;;;6.07;1.27;;;13.40;97.20;;;;;;5046807;28;20052;-93
2024/01/01 11:53:16;;;;;;;10.80;2.00;;;13.70;96.70;;;;;;5036911;28;20037;-94
2024/01/01 11:55:42;;;;;;;7.78;1.25;;;14.00;95.90;;;;;;5041133;28;20112;-94
2024/01/01 11:58:09;;;;;;;11.68;2.40;;;14.30;95.10;;;;;;5046882;28;20042;-93
2024/01/01 12:00:36;;;;;;;10.43;1.70;;;14.60;94.10;;;;;;5056232;28;20014;-92
2024/01/01 12:03:06;;;;;;;12.00;2.20;;;14.60;91.20;;;;;;5053439;28;20096;-91
2024/01/01 12:05:34;;;;;;;18.15;4.38;;;14.40;90.90;;;;;;5049700;28;20014;-92
2024/01/01 12:08:14;;;;;;;6.35;1.38;;;14.50;91.10;;;;;;5058006;28;20072;-94
2024/01/01 12:10:39;;;;;;;9.60;1.50;;;14.50;89.90;;;;;;5058690;28;20028;-93
2024/01/01 12:13:06;;;;;;;9.35;2.05;;;14.30;87.40;;;;;;5038493;28;20025;-94
2024/01/01 12:15:32;;;;;;;9.65;1.95;;;14.30;88.30;;;;;;5034342;28;20030;-92
2024/01/01 12:17:58;;;;;;;8.25;2.35;;;14.30;87.80;;;;;;5035628;28;20033;-93
2024/01/01 12:20:24;;;;;;;10.23;1.75;;;14.40;87.90;;;;;;5035214;28;20026;-90
2024/01/01 12:22:52;;;;;;;11.00;1.38;;;14.60;86.50;;;;;;5034807;28;20140;-92
2024/01/01 12:25:23;;;;;;;9.93;2.03;;;14.80;86.10;;;;;;5025544;28;20473;-91
2024/01/01 12:28:12;;;;;;;10.30;1.85;;;15.10;85.50;;;;;;5016749;28;20437;-93
2024/01/01 12:30:38;;;;;;;7.95;1.90;;;15.30;84.70;;;;;;5025875;28;20435;-93
2024/01/01 12:33:04;;;;;;;11.90;1.58;;;15.50;83.10;;;;;;5015280;28;20042;-92
2024/01/01 12:35:30;;;;;;;6.15;1.55;;;15.60;82.70;;;;;;5029656;28;20120;-93
2024/01/01 12:37:55;;;;;;;7.85;1.70;;;15.80;81.40;;;;;;5034290;28;20419;-93
2024/01/01 12:40:21;;;;;;;11.02;1.58;;;15.90;80.90;;;;;;5035171;28;20056;-92
2024/01/01 12:42:47;;;;;;;6.57;1.52;;;15.90;79.60;;;;;;5037234;28;20067;-92
2024/01/01 12:45:13;;;;;;;6.40;1.65;;;15.80;78.90;;;;;;5046506;28;20097;-92
2024/01/01 12:47:41;;;;;;;8.63;1.38;;;15.70;79.20;;;;;;5026335;28;20033;-94
2024/01/01 12:50:08;;;;;;;6.80;1.23;;;15.70;79.30;;;;;;5036700;28;20528;-93
2024/01/01 12:52:34;;;;;;;8.07;1.60;;;15.60;78.70;;;;;;5034514;28;20599;-93